createdAt,value
2018-04-30T00:02:10.721Z,80.90
2018-04-30T00:04:38.245Z,79.70
2018-04-30T00:07:05.798Z,80.50
2018-04-30T00:09:33.330Z,79.50
2018-04-30T00:12:00.893Z,80.10
2018-04-30T00:14:28.436Z,78.60
2018-04-30T00:16:56.948Z,79.40
2018-04-30T00:19:24.469Z,80.10
2018-04-30T00:21:51.989Z,80.60
2018-04-30T00:24:20.307Z,81.00
2018-04-30T00:26:48.472Z,80.90
2018-04-30T00:29:16.029Z,80.70
2018-04-30T00:31:43.553Z,80.20
2018-04-30T00:34:11.093Z,80.40
2018-04-30T00:36:38.622Z,80.70
2018-04-30T00:39:08.131Z,80.40
2018-04-30T00:41:35.659Z,80.60
2018-04-30T00:44:03.184Z,80.20
2018-04-30T00:46:30.744Z,81.10
2018-04-30T00:48:58.268Z,81.30
2018-04-30T00:51:25.827Z,81.40
2018-04-30T00:53:53.362Z,81.60
2018-04-30T00:56:20.916Z,82.40
2018-04-30T00:58:48.428Z,83.80
2018-04-30T01:01:15.976Z,83.60
2018-04-30T01:03:43.504Z,84.20
2018-04-30T01:06:11.037Z,84.10
2018-04-30T01:08:38.722Z,84.90
2018-04-30T01:11:06.257Z,85.30
2018-04-30T01:13:33.938Z,84.40
2018-04-30T01:16:01.461Z,84.80
2018-04-30T01:18:29.801Z,84.90
2018-04-30T01:20:57.324Z,84.90
2018-04-30T01:23:24.874Z,84.40
2018-04-30T01:25:52.410Z,85.30
2018-04-30T01:28:20.701Z,85.30
2018-04-30T01:30:48.250Z,85.30
2018-04-30T01:33:15.792Z,87.00
2018-04-30T01:35:43.348Z,87.30
2018-04-30T01:38:10.868Z,88.90
2018-04-30T01:40:39.416Z,89.80
2018-04-30T01:43:06.938Z,87.20
2018-04-30T01:45:35.466Z,86.80
2018-04-30T01:48:03.982Z,88.90
2018-04-30T01:50:31.530Z,88.60
2018-04-30T01:52:59.070Z,87.50
2018-04-30T01:55:27.575Z,87.10
2018-04-30T01:57:55.122Z,87.50
2018-04-30T02:00:22.650Z,87.90
2018-04-30T02:02:50.965Z,87.40
2018-04-30T02:05:18.492Z,87.40
2018-04-30T02:07:46.887Z,88.20
2018-04-30T02:10:14.367Z,88.00
2018-04-30T02:12:41.898Z,89.40
2018-04-30T02:32:26.929Z,90.30
2018-04-30T02:34:54.451Z,90.50
2018-04-30T02:37:21.973Z,90.50
2018-04-30T02:39:50.298Z,90.40
2018-04-30T02:42:17.831Z,90.40
2018-04-30T02:44:45.375Z,90.40
2018-04-30T02:47:12.905Z,90.40
2018-04-30T02:49:41.216Z,91.50
2018-04-30T02:52:09.696Z,91.50
2018-04-30T02:54:38.187Z,90.50
2018-04-30T02:57:05.740Z,90.10
2018-04-30T02:59:33.295Z,90.80
2018-04-30T03:02:01.601Z,90.60
2018-04-30T03:04:29.125Z,90.60
2018-04-30T03:06:57.462Z,91.30
2018-04-30T03:09:24.989Z,91.30
2018-04-30T03:11:52.516Z,91.50
2018-04-30T03:14:20.826Z,91.80
2018-04-30T03:16:48.359Z,91.90
2018-04-30T03:19:15.945Z,92.40
2018-04-30T03:21:43.474Z,91.70
2018-04-30T03:24:12.983Z,91.60
2018-04-30T03:26:40.530Z,91.60
2018-04-30T03:29:08.823Z,91.30
2018-04-30T03:31:36.361Z,91.30
2018-04-30T03:34:04.845Z,91.80
2018-04-30T03:36:32.392Z,92.30
2018-04-30T03:38:59.911Z,92.10
2018-04-30T03:41:27.468Z,91.60
2018-04-30T03:43:55.009Z,91.00
2018-04-30T03:46:22.541Z,91.10
2018-04-30T03:48:50.096Z,92.10
2018-04-30T03:51:18.397Z,91.70
2018-04-30T03:53:47.904Z,91.60
2018-04-30T03:56:15.422Z,92.00
2018-04-30T03:58:42.969Z,92.00
2018-04-30T04:01:22.358Z,92.10
2018-04-30T04:04:01.719Z,91.80
2018-04-30T04:06:40.965Z,92.40
2018-04-30T04:09:08.525Z,93.50
2018-04-30T04:11:36.861Z,93.20
2018-04-30T04:14:04.391Z,93.20
2018-04-30T04:16:32.713Z,94.40
2018-04-30T04:19:01.229Z,94.30
2018-04-30T04:21:28.769Z,94.20
2018-04-30T04:23:56.313Z,94.20
2018-04-30T04:26:23.876Z,93.70
2018-04-30T04:28:51.413Z,93.30
2018-04-30T04:31:18.941Z,94.20
2018-04-30T04:33:48.443Z,94.20
2018-04-30T04:36:15.964Z,94.70
2018-04-30T04:38:43.513Z,94.90
2018-04-30T04:41:11.045Z,95.10
2018-04-30T04:43:38.604Z,95.00
2018-04-30T04:46:06.124Z,94.90
2018-04-30T04:48:33.658Z,94.90
2018-04-30T04:51:01.214Z,95.10
2018-04-30T04:53:29.689Z,95.40
2018-04-30T04:55:57.237Z,95.10
2018-04-30T04:58:24.754Z,95.00
2018-04-30T05:00:52.324Z,95.40
2018-04-30T05:03:19.841Z,96.50
2018-04-30T05:05:48.358Z,94.10
2018-04-30T05:08:16.877Z,95.00
2018-04-30T05:10:44.401Z,94.90
2018-04-30T05:13:14.686Z,94.40
2018-04-30T05:15:42.215Z,94.40
2018-04-30T05:18:09.766Z,94.80
2018-04-30T05:20:37.293Z,94.20
2018-04-30T05:23:04.815Z,94.80
2018-04-30T05:25:33.329Z,95.20
2018-04-30T05:28:00.857Z,95.90
2018-04-30T05:30:28.417Z,96.50
2018-04-30T05:32:55.941Z,95.20
2018-04-30T05:35:23.498Z,95.10
2018-04-30T05:37:51.022Z,95.40
2018-04-30T05:40:19.388Z,94.60
2018-04-30T05:42:46.948Z,94.60
2018-04-30T05:45:14.482Z,94.30
2018-04-30T05:47:42.064Z,94.30
2018-04-30T05:50:10.354Z,94.10
2018-04-30T05:52:37.873Z,94.10
2018-04-30T05:55:05.424Z,93.80
2018-04-30T05:57:32.957Z,94.40
2018-04-30T06:00:00.514Z,93.80
2018-04-30T06:02:28.059Z,93.10
2018-04-30T06:04:56.401Z,93.00
2018-04-30T06:07:23.937Z,93.00
2018-04-30T06:09:51.449Z,91.90
2018-04-30T06:12:19.769Z,93.30
2018-04-30T06:14:47.284Z,93.30
2018-04-30T06:17:15.616Z,92.50
2018-04-30T06:19:43.148Z,92.50
2018-04-30T06:22:10.733Z,89.20
2018-04-30T06:24:38.269Z,91.10
2018-04-30T06:27:05.814Z,90.30
2018-04-30T06:29:33.358Z,89.80
2018-04-30T06:32:01.650Z,87.80
2018-04-30T06:34:29.209Z,87.70
2018-04-30T06:36:56.728Z,87.30
2018-04-30T06:39:24.309Z,88.10
2018-04-30T06:41:52.623Z,89.00
2018-04-30T06:44:20.160Z,89.10
2018-04-30T06:46:47.711Z,87.50
2018-04-30T06:49:15.257Z,83.00
2018-04-30T06:51:43.783Z,85.30
2018-04-30T06:54:11.306Z,84.20
2018-04-30T06:56:38.879Z,81.80
2018-04-30T06:59:08.124Z,83.80
2018-04-30T07:01:35.665Z,83.80
2018-04-30T07:04:03.212Z,83.10
2018-04-30T07:06:31.676Z,81.70
2018-04-30T07:08:59.238Z,81.80
2018-04-30T07:11:27.713Z,81.60
2018-04-30T07:13:56.027Z,77.40
2018-04-30T07:16:23.571Z,77.50
2018-04-30T07:18:53.082Z,77.10
2018-04-30T07:21:21.578Z,76.80
2018-04-30T07:23:49.137Z,75.80
2018-04-30T07:26:16.664Z,75.90
2018-04-30T07:28:44.217Z,76.80
2018-04-30T07:31:11.756Z,73.60
2018-04-30T07:33:40.251Z,75.50
2018-04-30T07:36:07.818Z,74.30
2018-04-30T07:38:36.301Z,72.80
2018-04-30T07:41:06.028Z,72.30
2018-04-30T07:43:33.556Z,74.50
2018-04-30T07:46:01.121Z,75.60
2018-04-30T07:48:28.650Z,72.80
2018-04-30T07:50:56.194Z,72.90
2018-04-30T07:53:23.738Z,72.50
2018-04-30T07:55:51.269Z,70.70
2018-04-30T07:58:18.831Z,70.00
2018-04-30T08:00:46.374Z,70.20
2018-04-30T08:03:13.889Z,70.00
2018-04-30T08:05:41.437Z,70.50
2018-04-30T08:08:09.244Z,70.20
2018-04-30T08:10:37.565Z,66.30
2018-04-30T08:13:05.091Z,66.20
2018-04-30T08:15:33.405Z,63.70
2018-04-30T08:18:00.937Z,63.70
2018-04-30T08:20:29.416Z,64.90
2018-04-30T08:22:56.973Z,65.10
2018-04-30T08:25:24.517Z,67.20
2018-04-30T08:27:52.074Z,66.70
2018-04-30T08:30:20.363Z,64.10
2018-04-30T08:32:47.906Z,64.10
2018-04-30T08:35:15.466Z,63.40
2018-04-30T08:37:42.996Z,61.90
2018-04-30T08:40:12.159Z,62.90
2018-04-30T08:42:39.689Z,62.80
2018-04-30T08:45:07.278Z,62.70
2018-04-30T08:47:34.831Z,62.20
2018-04-30T08:50:02.372Z,61.70
2018-04-30T08:52:29.913Z,60.30
2018-04-30T08:54:58.205Z,61.70
2018-04-30T08:57:25.758Z,61.70
2018-04-30T08:59:53.279Z,62.40
2018-04-30T09:02:20.800Z,62.60
2018-04-30T09:04:48.347Z,61.30
2018-04-30T09:07:15.869Z,62.10
2018-04-30T09:09:44.247Z,58.70
2018-04-30T09:12:11.733Z,58.70
2018-04-30T09:14:40.034Z,57.80
2018-04-30T09:17:07.592Z,57.80
2018-04-30T09:19:36.093Z,60.10
2018-04-30T09:22:03.669Z,58.70
2018-04-30T09:24:31.202Z,58.00
2018-04-30T09:26:58.730Z,52.50
2018-04-30T09:29:26.276Z,52.60
2018-04-30T09:31:53.827Z,54.20
2018-04-30T09:34:28.685Z,55.20
2018-04-30T09:36:56.224Z,54.20
2018-04-30T09:39:23.771Z,52.90
2018-04-30T09:41:52.064Z,52.20
2018-04-30T09:44:21.302Z,52.00
2018-04-30T09:46:49.882Z,52.00
2018-04-30T09:49:17.438Z,51.70
2018-04-30T09:51:45.007Z,52.70
2018-04-30T09:54:12.545Z,51.30
2018-04-30T09:56:40.085Z,51.10
2018-04-30T09:59:09.394Z,52.20
2018-04-30T10:01:36.924Z,52.20
2018-04-30T10:04:04.477Z,50.90
2018-04-30T10:06:32.000Z,51.00
2018-04-30T10:08:59.517Z,50.50
2018-04-30T10:11:27.849Z,51.20
2018-04-30T10:13:55.368Z,51.10
2018-04-30T10:16:22.913Z,49.40
2018-04-30T10:18:51.397Z,51.10
2018-04-30T10:21:18.946Z,49.20
2018-04-30T10:23:47.282Z,52.00
2018-04-30T10:26:14.833Z,52.00
2018-04-30T10:28:42.384Z,51.60
2018-04-30T10:31:09.905Z,50.60
2018-04-30T10:33:38.197Z,52.20
2018-04-30T10:36:05.741Z,52.10
2018-04-30T10:38:33.269Z,51.40
2018-04-30T10:41:01.825Z,52.30
2018-04-30T10:43:29.419Z,52.60
2018-04-30T10:45:56.935Z,51.70
2018-04-30T10:48:24.456Z,51.00
2018-04-30T10:50:52.747Z,50.60
2018-04-30T10:53:20.378Z,50.60
2018-04-30T10:55:47.945Z,50.30
2018-04-30T10:58:16.285Z,51.50
2018-04-30T11:00:43.819Z,51.50
2018-04-30T11:03:11.419Z,52.30
2018-04-30T11:05:38.933Z,51.60
2018-04-30T11:08:06.465Z,52.00
2018-04-30T11:10:34.022Z,52.30
2018-04-30T11:13:01.560Z,52.20
2018-04-30T11:15:29.123Z,52.40
2018-04-30T11:17:56.652Z,51.90
2018-04-30T11:20:24.177Z,51.80
2018-04-30T11:22:51.722Z,51.00
2018-04-30T11:25:19.265Z,50.70
2018-04-30T11:27:47.601Z,50.60
2018-04-30T11:30:15.126Z,50.60
2018-04-30T11:32:42.779Z,49.70
2018-04-30T11:35:10.354Z,48.60
2018-04-30T11:37:37.908Z,49.50
2018-04-30T11:40:05.506Z,48.80
2018-04-30T11:42:33.060Z,48.80
2018-04-30T11:45:00.607Z,49.30
2018-04-30T11:47:28.188Z,48.30
2018-04-30T11:49:55.727Z,46.90
2018-04-30T11:52:23.288Z,46.80
2018-04-30T11:54:50.852Z,46.30
2018-04-30T11:57:19.427Z,48.80
2018-04-30T11:59:48.921Z,50.30
2018-04-30T12:02:16.448Z,50.30
2018-04-30T12:04:44.777Z,48.80
2018-04-30T12:07:12.329Z,48.80
2018-04-30T12:09:39.908Z,50.00
2018-04-30T12:12:07.541Z,49.30
2018-04-30T12:14:35.128Z,48.60
2018-04-30T12:17:02.732Z,48.90
2018-04-30T12:19:30.277Z,48.90
2018-04-30T12:21:58.717Z,48.40
2018-04-30T12:24:27.101Z,48.40
2018-04-30T12:26:54.709Z,48.30
2018-04-30T12:29:23.722Z,48.60
2018-04-30T12:31:51.290Z,48.80
2018-04-30T12:34:18.862Z,49.10
2018-04-30T12:36:46.432Z,49.80
2018-04-30T12:39:14.012Z,47.90
2018-04-30T12:41:41.569Z,47.90
2018-04-30T12:44:09.123Z,48.10
2018-04-30T12:46:36.657Z,47.30
2018-04-30T12:49:04.187Z,46.20
2018-04-30T12:51:31.764Z,48.30
2018-04-30T12:53:59.322Z,46.80
2018-04-30T12:56:26.892Z,46.10
2018-04-30T12:58:54.432Z,46.80
2018-04-30T13:01:21.991Z,46.00
2018-04-30T13:03:49.586Z,46.90
2018-04-30T13:06:17.122Z,46.00
2018-04-30T13:08:44.688Z,45.80
2018-04-30T13:11:12.260Z,44.80
2018-04-30T13:13:39.805Z,44.40
2018-04-30T13:16:07.389Z,44.10
2018-04-30T13:18:34.928Z,43.40
2018-04-30T13:21:02.485Z,43.10
2018-04-30T13:23:30.961Z,41.90
2018-04-30T13:25:58.518Z,41.00
2018-04-30T13:28:26.045Z,39.60
2018-04-30T13:30:53.599Z,38.70
2018-04-30T13:33:21.126Z,39.20
2018-04-30T13:35:48.655Z,39.30
2018-04-30T13:38:16.221Z,38.50
2018-04-30T13:40:43.745Z,37.60
2018-04-30T13:43:13.254Z,37.50
2018-04-30T13:45:40.782Z,38.20
2018-04-30T13:48:08.342Z,37.00
2018-04-30T13:50:35.873Z,37.10
2018-04-30T13:53:03.436Z,37.70
2018-04-30T13:55:30.968Z,39.40
2018-04-30T13:57:58.516Z,38.00
2018-04-30T14:00:26.032Z,38.00
2018-04-30T14:02:53.580Z,39.10
2018-04-30T14:05:21.104Z,39.00
2018-04-30T14:07:48.655Z,39.70
2018-04-30T14:10:16.192Z,39.40
2018-04-30T14:12:44.503Z,40.20
2018-04-30T14:15:12.029Z,40.20
2018-04-30T14:17:43.757Z,41.10
2018-04-30T14:20:11.622Z,41.20
2018-04-30T14:22:39.945Z,42.40
2018-04-30T14:25:08.456Z,42.30
2018-04-30T14:27:37.985Z,41.90
2018-04-30T14:30:05.517Z,42.50
2018-04-30T14:32:33.064Z,41.60
2018-04-30T14:35:00.593Z,42.30
2018-04-30T14:37:28.138Z,40.90
2018-04-30T14:39:56.434Z,42.10
2018-04-30T14:42:23.986Z,42.10
2018-04-30T14:44:51.513Z,38.70
2018-04-30T14:47:21.057Z,37.90
2018-04-30T14:49:48.584Z,38.70
2018-04-30T14:52:16.920Z,38.80
2018-04-30T14:54:45.393Z,38.80
2018-04-30T14:57:13.030Z,36.90
2018-04-30T14:59:40.556Z,34.60
2018-04-30T15:02:08.880Z,32.40
2018-04-30T15:04:36.607Z,32.40
2018-04-30T15:07:04.145Z,31.10
2018-04-30T15:09:32.467Z,34.20
2018-04-30T15:11:59.993Z,34.10
2018-04-30T15:14:27.545Z,35.00
2018-04-30T15:16:55.073Z,37.10
2018-04-30T15:19:22.703Z,37.50
2018-04-30T15:21:50.233Z,38.10
2018-04-30T15:24:19.739Z,38.90
2018-04-30T15:26:47.271Z,39.60
2018-04-30T15:29:14.832Z,39.90
2018-04-30T15:31:42.361Z,40.40
2018-04-30T15:34:09.925Z,41.20
2018-04-30T15:36:38.433Z,41.50
2018-04-30T15:39:05.987Z,41.90
2018-04-30T15:41:33.523Z,42.30
2018-04-30T15:44:01.150Z,44.40
2018-04-30T15:46:28.693Z,43.60
2018-04-30T15:48:56.292Z,42.90
2018-04-30T15:51:23.821Z,36.40
2018-04-30T15:53:52.141Z,38.50
2018-04-30T15:56:19.670Z,38.60
2018-04-30T15:58:48.007Z,41.20
2018-04-30T16:01:15.598Z,41.10
2018-04-30T16:03:43.112Z,42.20
2018-04-30T16:06:10.699Z,43.00
2018-04-30T16:08:38.221Z,43.70
2018-04-30T16:11:05.793Z,43.70
2018-04-30T16:13:33.401Z,43.90
2018-04-30T16:16:00.961Z,44.00
2018-04-30T16:18:28.495Z,44.40
2018-04-30T16:20:56.088Z,42.20
2018-04-30T16:23:23.609Z,38.50
2018-04-30T16:25:51.165Z,37.10
2018-04-30T16:28:18.917Z,39.50
2018-04-30T16:30:46.479Z,39.70
2018-04-30T16:33:14.005Z,42.20
2018-04-30T16:35:41.561Z,44.70
2018-04-30T16:38:09.086Z,46.60
2018-04-30T16:40:37.413Z,48.10
2018-04-30T16:43:04.938Z,48.10
2018-04-30T16:45:32.488Z,48.30
2018-04-30T16:48:00.787Z,49.10
2018-04-30T16:50:28.413Z,49.10
2018-04-30T16:52:55.943Z,50.10
2018-04-30T16:55:23.547Z,49.90
2018-04-30T16:57:51.082Z,49.80
2018-04-30T17:00:18.657Z,50.00
2018-04-30T17:02:46.941Z,48.80
2018-04-30T17:05:17.205Z,49.40
2018-04-30T17:07:44.734Z,49.40
2018-04-30T17:10:12.973Z,50.70
2018-04-30T17:12:40.497Z,51.00
2018-04-30T17:15:08.063Z,50.80
2018-04-30T17:17:35.599Z,51.40
2018-04-30T17:20:03.161Z,51.10
2018-04-30T17:22:30.678Z,51.50
2018-04-30T17:24:59.041Z,51.60
2018-04-30T17:27:26.561Z,51.60
2018-04-30T17:29:54.120Z,51.80
2018-04-30T17:32:21.655Z,52.40
2018-04-30T17:34:49.213Z,52.80
2018-04-30T17:37:16.752Z,53.30
2018-04-30T17:39:44.300Z,53.70
2018-04-30T17:42:11.826Z,53.90
2018-04-30T17:44:39.372Z,54.40
2018-04-30T17:47:06.905Z,54.80
2018-04-30T17:49:34.425Z,55.30
2018-04-30T17:52:02.013Z,55.40
2018-04-30T17:54:30.310Z,55.50
2018-04-30T17:56:57.865Z,55.50
2018-04-30T17:59:25.393Z,55.40
2018-04-30T18:01:52.953Z,56.00
2018-04-30T18:04:21.246Z,57.70
2018-04-30T18:06:49.860Z,57.40
2018-04-30T18:09:17.324Z,57.20
2018-04-30T18:11:44.895Z,57.50
2018-04-30T18:14:12.422Z,57.50
2018-04-30T18:16:39.980Z,57.90
2018-04-30T18:19:08.442Z,58.30
2018-04-30T18:21:35.990Z,58.10
2018-04-30T18:24:04.284Z,59.40
2018-04-30T18:26:31.898Z,59.40
2018-04-30T18:28:59.381Z,59.70
2018-04-30T18:31:27.716Z,60.60
2018-04-30T18:33:55.254Z,60.60
2018-04-30T18:36:22.825Z,61.50
2018-04-30T18:38:50.405Z,62.40
2018-04-30T18:41:17.937Z,63.30
2018-04-30T18:43:45.485Z,64.00
2018-04-30T18:46:13.033Z,64.00
2018-04-30T18:48:40.593Z,64.00
2018-04-30T18:51:08.142Z,64.80
2018-04-30T18:53:35.665Z,66.00
2018-04-30T18:56:03.223Z,66.90
2018-04-30T18:58:30.749Z,67.40
2018-04-30T19:00:58.505Z,68.00
2018-04-30T19:03:26.068Z,68.20
2018-04-30T19:05:53.630Z,68.70
2018-04-30T19:08:21.189Z,68.60
2018-04-30T19:10:48.760Z,69.10
2018-04-30T19:13:17.249Z,70.30
2018-04-30T19:15:44.805Z,69.60
2018-04-30T19:18:12.362Z,69.80
2018-04-30T19:20:39.916Z,69.90
2018-04-30T19:23:07.443Z,70.60
2018-04-30T19:25:35.014Z,71.20
2018-04-30T19:28:03.522Z,71.00
2018-04-30T19:30:32.302Z,71.30
2018-04-30T19:32:59.852Z,71.10
2018-04-30T19:35:28.174Z,71.50
2018-04-30T19:37:56.009Z,71.50
2018-04-30T19:40:23.585Z,72.00
2018-04-30T19:42:51.137Z,72.10
2018-04-30T19:45:18.915Z,72.80
2018-04-30T19:47:46.536Z,72.70
2018-04-30T19:50:14.534Z,72.80
2018-04-30T19:52:42.091Z,73.30
2018-04-30T19:55:10.576Z,73.40
2018-04-30T19:57:40.064Z,73.70
2018-04-30T20:00:07.817Z,74.20
2018-04-30T20:02:35.685Z,74.00
2018-04-30T20:05:04.289Z,74.50
2018-04-30T20:07:32.770Z,74.50
2018-04-30T20:10:03.283Z,75.10
2018-04-30T20:12:30.830Z,75.40
2018-04-30T20:14:58.389Z,75.70
2018-04-30T20:17:25.952Z,76.40
2018-04-30T20:19:53.625Z,76.50
2018-04-30T20:22:21.377Z,77.00
2018-04-30T20:24:50.471Z,76.70
2018-04-30T20:27:18.984Z,76.60
2018-04-30T20:29:46.554Z,75.70
2018-04-30T20:32:14.107Z,75.40
2018-04-30T20:34:41.689Z,75.10
2018-04-30T20:37:09.996Z,75.40
2018-04-30T20:39:37.530Z,75.40
2018-04-30T20:42:05.136Z,75.40
2018-04-30T20:44:32.750Z,75.40
2018-04-30T20:47:00.297Z,75.60
2018-04-30T20:49:27.816Z,75.70
2018-04-30T20:51:55.375Z,75.50
2018-04-30T20:54:22.915Z,75.10
2018-04-30T20:56:50.516Z,75.70
2018-04-30T20:59:18.059Z,76.00
2018-04-30T21:01:45.613Z,76.30
2018-04-30T21:04:13.142Z,76.20
2018-04-30T21:06:41.667Z,76.60
2018-04-30T21:09:13.086Z,77.00
2018-04-30T21:11:40.633Z,77.30
2018-04-30T21:14:08.192Z,77.70
2018-04-30T21:16:35.742Z,77.90
2018-04-30T21:19:03.302Z,78.00
2018-04-30T21:21:31.609Z,78.20
2018-04-30T21:23:59.162Z,78.20
2018-04-30T21:26:26.697Z,78.10
2018-04-30T21:28:54.250Z,78.20
2018-04-30T21:31:22.423Z,77.60
2018-04-30T21:33:50.773Z,77.30
2018-04-30T21:36:18.305Z,77.30
2018-04-30T21:38:45.849Z,77.00
2018-04-30T21:41:14.437Z,77.20
2018-04-30T21:43:41.966Z,76.20
2018-04-30T21:46:09.549Z,77.00
2018-04-30T21:48:37.086Z,76.70
2018-04-30T21:51:05.617Z,76.30
2018-04-30T21:53:33.152Z,76.60
2018-04-30T21:56:00.698Z,76.90
2018-04-30T21:58:28.497Z,77.10
2018-04-30T22:00:56.044Z,77.20
2018-04-30T22:03:23.565Z,76.90
2018-04-30T22:05:51.098Z,77.20
2018-04-30T22:08:18.686Z,77.20
2018-04-30T22:10:46.371Z,77.30
2018-04-30T22:13:13.944Z,77.20
2018-04-30T22:15:41.504Z,77.00
2018-04-30T22:18:09.063Z,77.30
2018-04-30T22:20:36.658Z,77.20
2018-04-30T22:23:04.215Z,77.60
2018-04-30T22:25:31.745Z,77.80
2018-04-30T22:27:59.334Z,78.10
2018-04-30T22:30:26.872Z,78.50
2018-04-30T22:32:54.410Z,79.20
2018-04-30T22:35:21.963Z,79.20
2018-04-30T22:37:49.829Z,79.10
2018-04-30T22:40:17.437Z,79.30
2018-04-30T22:42:44.966Z,79.50
2018-04-30T22:45:15.134Z,79.60
2018-04-30T22:47:44.421Z,79.70
2018-04-30T22:50:11.952Z,79.70
2018-04-30T22:52:39.501Z,80.00
2018-04-30T22:55:07.029Z,79.80
2018-04-30T22:57:34.555Z,80.40
2018-04-30T23:00:02.887Z,80.80
2018-04-30T23:02:30.414Z,80.70
2018-04-30T23:04:57.962Z,80.40
2018-04-30T23:07:25.505Z,80.80
2018-04-30T23:09:53.057Z,81.00
2018-04-30T23:12:20.633Z,81.10
2018-04-30T23:14:49.262Z,81.30
2018-04-30T23:17:16.818Z,81.70
2018-04-30T23:19:44.357Z,81.80
2018-04-30T23:22:14.679Z,81.90
2018-04-30T23:24:42.201Z,82.30
2018-04-30T23:27:10.686Z,82.30
2018-04-30T23:29:38.484Z,82.30
2018-04-30T23:32:06.019Z,82.60
2018-04-30T23:34:33.583Z,83.00
2018-04-30T23:37:02.124Z,83.30
2018-04-30T23:39:29.645Z,83.50
2018-04-30T23:41:57.197Z,83.50
2018-04-30T23:44:24.738Z,83.70
2018-04-30T23:46:53.087Z,84.40
2018-04-30T23:49:20.629Z,84.40
2018-04-30T23:51:48.198Z,84.40
2018-04-30T23:54:15.745Z,84.90
2018-04-30T23:56:43.270Z,85.50
2018-04-30T23:59:10.824Z,85.60
